sensor_id;sensor_type;location;lat;lon;timestamp;pressure;altitude;pressure_sealevel;temperature;humidity
9462;BME280;4769;42.660;23.262;2024-01-25T00:00:28;94537.81;;;5.01;75.81
9462;BME280;4769;42.660;23.262;2024-01-25T00:02:54;94543.47;;;5.11;78.51
9462;BME280;4769;42.660;23.262;2024-01-25T00:05:19;94541.25;;;5.14;79.94
9462;BME280;4769;42.660;23.262;2024-01-25T00:07:46;94528.59;;;5.18;80.28
9462;BME280;4769;42.660;23.262;2024-01-25T00:10:12;94522.56;;;5.17;80.58
9462;BME280;4769;42.660;23.262;2024-01-25T00:12:37;94517.75;;;5.21;80.15
9462;BME280;4769;42.660;23.262;2024-01-25T00:15:03;94508.88;;;5.15;80.48
9462;BME280;4769;42.660;23.262;2024-01-25T00:17:28;94502.84;;;5.08;80.90
9462;BME280;4769;42.660;23.262;2024-01-25T00:19:54;94488.75;;;4.96;81.61
9462;BME280;4769;42.660;23.262;2024-01-25T00:22:19;94456.75;;;4.88;81.94
9462;BME280;4769;42.660;23.262;2024-01-25T00:24:45;94434.03;;;4.82;81.25
9462;BME280;4769;42.660;23.262;2024-01-25T00:27:10;94421.59;;;4.90;79.94
9462;BME280;4769;42.660;23.262;2024-01-25T00:29:36;94416.63;;;5.15;79.68
9462;BME280;4769;42.660;23.262;2024-01-25T00:32:02;94427.66;;;5.17;79.42
9462;BME280;4769;42.660;23.262;2024-01-25T00:34:28;94422.63;;;5.15;78.71
9462;BME280;4769;42.660;23.262;2024-01-25T00:36:53;94420.78;;;4.90;75.90
9462;BME280;4769;42.660;23.262;2024-01-25T00:39:19;94406.91;;;4.83;76.75
9462;BME280;4769;42.660;23.262;2024-01-25T00:41:49;94427.84;;;5.02;78.60
9462;BME280;4769;42.660;23.262;2024-01-25T00:44:16;94422.63;;;5.74;78.19
9462;BME280;4769;42.660;23.262;2024-01-25T00:46:42;94439.91;;;6.07;76.33
9462;BME280;4769;42.660;23.262;2024-01-25T00:49:08;94431.63;;;6.17;74.61
9462;BME280;4769;42.660;23.262;2024-01-25T00:51:34;94438.34;;;5.93;73.82
9462;BME280;4769;42.660;23.262;2024-01-25T00:54:01;94426.25;;;5.53;73.06
9462;BME280;4769;42.660;23.262;2024-01-25T00:56:27;94436.31;;;5.43;74.38
9462;BME280;4769;42.660;23.262;2024-01-25T00:58:53;94436.31;;;5.24;73.81
9462;BME280;4769;42.660;23.262;2024-01-25T01:01:21;94432.91;;;5.17;74.77
9462;BME280;4769;42.660;23.262;2024-01-25T01:03:47;94431.84;;;5.05;74.75
9462;BME280;4769;42.660;23.262;2024-01-25T01:06:19;94423.22;;;5.04;76.03
9462;BME280;4769;42.660;23.262;2024-01-25T01:08:46;94436.50;;;5.03;76.10
9462;BME280;4769;42.660;23.262;2024-01-25T01:11:11;94427.47;;;5.25;76.89
9462;BME280;4769;42.660;23.262;2024-01-25T01:13:37;94425.47;;;5.59;77.75
9462;BME280;4769;42.660;23.262;2024-01-25T01:16:02;94420.03;;;5.80;77.54
9462;BME280;4769;42.660;23.262;2024-01-25T01:18:28;94420.41;;;5.97;76.81
9462;BME280;4769;42.660;23.262;2024-01-25T01:20:53;94429.06;;;6.04;76.98
9462;BME280;4769;42.660;23.262;2024-01-25T01:23:19;94401.88;;;5.98;76.23
9462;BME280;4769;42.660;23.262;2024-01-25T01:25:44;94378.88;;;6.20;76.34
9462;BME280;4769;42.660;23.262;2024-01-25T01:28:09;94373.94;;;6.43;75.40
9462;BME280;4769;42.660;23.262;2024-01-25T01:30:35;94378.28;;;6.62;76.08
9462;BME280;4769;42.660;23.262;2024-01-25T01:33:00;94383.59;;;6.42;73.97
9462;BME280;4769;42.660;23.262;2024-01-25T01:35:26;94394.53;;;6.33;74.04
9462;BME280;4769;42.660;23.262;2024-01-25T01:37:51;94380.66;;;6.19;74.49
9462;BME280;4769;42.660;23.262;2024-01-25T01:40:16;94373.38;;;6.72;77.09
9462;BME280;4769;42.660;23.262;2024-01-25T01:42:42;94369.63;;;6.92;76.33
9462;BME280;4769;42.660;23.262;2024-01-25T01:45:11;94371.13;;;7.37;77.92
9462;BME280;4769;42.660;23.262;2024-01-25T01:47:37;94348.38;;;7.74;76.63
9462;BME280;4769;42.660;23.262;2024-01-25T01:50:05;94358.59;;;7.82;74.87
9462;BME280;4769;42.660;23.262;2024-01-25T01:52:30;94358.38;;;7.83;74.53
9462;BME280;4769;42.660;23.262;2024-01-25T01:54:56;94354.13;;;7.64;72.38
9462;BME280;4769;42.660;23.262;2024-01-25T01:57:21;94370.66;;;7.40;73.09
9462;BME280;4769;42.660;23.262;2024-01-25T01:59:47;94342.00;;;7.63;74.39
9462;BME280;4769;42.660;23.262;2024-01-25T02:02:14;94348.91;;;7.82;73.82
9462;BME280;4769;42.660;23.262;2024-01-25T02:04:39;94354.88;;;7.89;74.39
9462;BME280;4769;42.660;23.262;2024-01-25T02:07:05;94350.72;;;7.82;75.25
9462;BME280;4769;42.660;23.262;2024-01-25T02:09:31;94326.50;;;7.80;75.22
9462;BME280;4769;42.660;23.262;2024-01-25T02:12:01;94327.66;;;7.84;76.51
9462;BME280;4769;42.660;23.262;2024-01-25T02:14:27;94332.91;;;7.84;77.25
9462;BME280;4769;42.660;23.262;2024-01-25T02:16:53;94334.38;;;7.98;76.83
9462;BME280;4769;42.660;23.262;2024-01-25T02:19:18;94335.78;;;8.00;76.90
9462;BME280;4769;42.660;23.262;2024-01-25T02:21:44;94337.69;;;8.11;76.63
9462;BME280;4769;42.660;23.262;2024-01-25T02:24:09;94354.69;;;8.09;76.43
9462;BME280;4769;42.660;23.262;2024-01-25T02:26:35;94332.78;;;8.15;76.60
9462;BME280;4769;42.660;23.262;2024-01-25T02:29:01;94334.38;;;8.16;78.22
9462;BME280;4769;42.660;23.262;2024-01-25T02:31:27;94337.47;;;8.31;77.85
9462;BME280;4769;42.660;23.262;2024-01-25T02:33:52;94321.88;;;8.36;77.83
9462;BME280;4769;42.660;23.262;2024-01-25T02:36:17;94328.94;;;8.35;78.01
9462;BME280;4769;42.660;23.262;2024-01-25T02:38:43;94318.84;;;8.32;78.41
9462;BME280;4769;42.660;23.262;2024-01-25T02:41:08;94318.72;;;8.27;78.24
9462;BME280;4769;42.660;23.262;2024-01-25T02:43:34;94337.56;;;8.24;77.75
9462;BME280;4769;42.660;23.262;2024-01-25T02:45:59;94310.13;;;8.20;77.90
9462;BME280;4769;42.660;23.262;2024-01-25T02:48:25;94315.44;;;8.14;78.45
9462;BME280;4769;42.660;23.262;2024-01-25T02:50:50;94293.75;;;8.18;78.55
9462;BME280;4769;42.660;23.262;2024-01-25T02:53:16;94305.06;;;8.19;79.80
9462;BME280;4769;42.660;23.262;2024-01-25T02:55:41;94285.28;;;8.16;79.55
9462;BME280;4769;42.660;23.262;2024-01-25T02:58:06;94306.16;;;8.11;78.82
9462;BME280;4769;42.660;23.262;2024-01-25T03:00:32;94309.97;;;7.97;78.59
9462;BME280;4769;42.660;23.262;2024-01-25T03:02:57;94312.22;;;7.94;78.92
9462;BME280;4769;42.660;23.262;2024-01-25T03:05:23;94314.47;;;7.90;79.23
9462;BME280;4769;42.660;23.262;2024-01-25T03:07:48;94321.03;;;7.99;79.02
9462;BME280;4769;42.660;23.262;2024-01-25T03:10:14;94324.34;;;7.95;79.90
9462;BME280;4769;42.660;23.262;2024-01-25T03:12:39;94332.34;;;8.00;79.70
9462;BME280;4769;42.660;23.262;2024-01-25T03:15:05;94334.03;;;7.94;79.82
9462;BME280;4769;42.660;23.262;2024-01-25T03:17:31;94330.00;;;7.92;79.70
9462;BME280;4769;42.660;23.262;2024-01-25T03:19:57;94305.22;;;7.88;81.28
9462;BME280;4769;42.660;23.262;2024-01-25T03:22:22;94315.72;;;7.88;80.93
9462;BME280;4769;42.660;23.262;2024-01-25T03:24:47;94340.78;;;7.84;81.04
9462;BME280;4769;42.660;23.262;2024-01-25T03:27:13;94315.34;;;7.84;81.00
9462;BME280;4769;42.660;23.262;2024-01-25T03:29:43;94308.44;;;7.72;80.58
9462;BME280;4769;42.660;23.262;2024-01-25T03:32:09;94301.59;;;7.71;80.74
9462;BME280;4769;42.660;23.262;2024-01-25T03:34:35;94313.69;;;7.72;80.45
9462;BME280;4769;42.660;23.262;2024-01-25T03:37:00;94303.97;;;7.72;79.49
9462;BME280;4769;42.660;23.262;2024-01-25T03:39:25;94293.84;;;7.76;79.74
9462;BME280;4769;42.660;23.262;2024-01-25T03:41:51;94279.56;;;7.72;79.99
9462;BME280;4769;42.660;23.262;2024-01-25T03:44:16;94265.63;;;7.71;79.66
9462;BME280;4769;42.660;23.262;2024-01-25T03:46:42;94270.88;;;7.89;79.47
9462;BME280;4769;42.660;23.262;2024-01-25T03:49:07;94281.16;;;7.91;78.73
9462;BME280;4769;42.660;23.262;2024-01-25T03:51:32;94297.28;;;7.94;78.30
9462;BME280;4769;42.660;23.262;2024-01-25T03:53:58;94277.94;;;7.89;78.00
9462;BME280;4769;42.660;23.262;2024-01-25T03:56:24;94264.66;;;7.84;77.86
9462;BME280;4769;42.660;23.262;2024-01-25T03:58:49;94247.69;;;7.86;77.58
9462;BME280;4769;42.660;23.262;2024-01-25T04:01:15;94231.78;;;7.81;78.01
9462;BME280;4769;42.660;23.262;2024-01-25T04:03:40;94219.31;;;7.95;79.00
9462;BME280;4769;42.660;23.262;2024-01-25T04:06:06;94243.78;;;8.07;78.54
9462;BME280;4769;42.660;23.262;2024-01-25T04:08:32;94259.19;;;8.03;78.39
9462;BME280;4769;42.660;23.262;2024-01-25T04:10:57;94250.81;;;8.13;78.32
9462;BME280;4769;42.660;23.262;2024-01-25T04:13:22;94257.88;;;8.12;77.15
9462;BME280;4769;42.660;23.262;2024-01-25T04:15:48;94256.28;;;8.11;77.02
9462;BME280;4769;42.660;23.262;2024-01-25T04:18:13;94261.88;;;8.15;76.59
9462;BME280;4769;42.660;23.262;2024-01-25T04:20:41;94261.06;;;8.14;76.43
9462;BME280;4769;42.660;23.262;2024-01-25T04:23:06;94248.53;;;8.16;75.95
9462;BME280;4769;42.660;23.262;2024-01-25T04:25:32;94250.34;;;8.16;75.11
9462;BME280;4769;42.660;23.262;2024-01-25T04:27:57;94234.44;;;8.11;75.14
9462;BME280;4769;42.660;23.262;2024-01-25T04:30:23;94240.66;;;8.16;74.17
9462;BME280;4769;42.660;23.262;2024-01-25T04:32:48;94235.41;;;8.16;73.72
9462;BME280;4769;42.660;23.262;2024-01-25T04:35:14;94251.22;;;8.10;74.23
9462;BME280;4769;42.660;23.262;2024-01-25T04:37:39;94246.81;;;7.92;74.13
9462;BME280;4769;42.660;23.262;2024-01-25T04:40:05;94257.31;;;7.92;74.78
9462;BME280;4769;42.660;23.262;2024-01-25T04:42:31;94249.94;;;7.83;74.53
9462;BME280;4769;42.660;23.262;2024-01-25T04:44:56;94284.34;;;7.93;74.34
9462;BME280;4769;42.660;23.262;2024-01-25T04:47:22;94288.56;;;7.94;72.98
9462;BME280;4769;42.660;23.262;2024-01-25T04:49:47;94323.66;;;7.99;72.67
9462;BME280;4769;42.660;23.262;2024-01-25T04:52:13;94293.19;;;7.98;72.54
9462;BME280;4769;42.660;23.262;2024-01-25T04:54:38;94284.06;;;8.01;72.20
9462;BME280;4769;42.660;23.262;2024-01-25T04:57:04;94282.75;;;7.92;72.27
9462;BME280;4769;42.660;23.262;2024-01-25T04:59:32;94305.22;;;7.88;71.37
9462;BME280;4769;42.660;23.262;2024-01-25T05:01:58;94316.53;;;7.88;71.07
9462;BME280;4769;42.660;23.262;2024-01-25T05:04:24;94327.25;;;7.87;70.31
9462;BME280;4769;42.660;23.262;2024-01-25T05:06:49;94333.94;;;7.83;70.95
9462;BME280;4769;42.660;23.262;2024-01-25T05:09:15;94340.78;;;7.84;70.07
9462;BME280;4769;42.660;23.262;2024-01-25T05:11:40;94353.56;;;7.80;70.08
9462;BME280;4769;42.660;23.262;2024-01-25T05:14:06;94323.72;;;7.75;70.27
9462;BME280;4769;42.660;23.262;2024-01-25T05:16:32;94320.53;;;7.73;69.81
9462;BME280;4769;42.660;23.262;2024-01-25T05:18:58;94332.84;;;7.72;70.10
9462;BME280;4769;42.660;23.262;2024-01-25T05:21:23;94364.56;;;7.71;70.71
9462;BME280;4769;42.660;23.262;2024-01-25T05:23:48;94351.72;;;7.63;70.97
9462;BME280;4769;42.660;23.262;2024-01-25T05:26:17;94355.38;;;7.62;70.89
9462;BME280;4769;42.660;23.262;2024-01-25T05:28:44;94372.63;;;7.51;70.88
9462;BME280;4769;42.660;23.262;2024-01-25T05:31:09;94357.84;;;7.57;69.97
9462;BME280;4769;42.660;23.262;2024-01-25T05:33:41;94350.22;;;7.49;71.03
9462;BME280;4769;42.660;23.262;2024-01-25T05:36:07;94355.91;;;7.46;71.14
9462;BME280;4769;42.660;23.262;2024-01-25T05:38:33;94350.22;;;7.49;70.39
9462;BME280;4769;42.660;23.262;2024-01-25T05:40:58;94360.06;;;7.53;71.37
9462;BME280;4769;42.660;23.262;2024-01-25T05:43:25;94384.13;;;7.50;70.87
9462;BME280;4769;42.660;23.262;2024-01-25T05:45:51;94376.31;;;7.44;71.89
9462;BME280;4769;42.660;23.262;2024-01-25T05:48:16;94396.91;;;7.40;71.84
9462;BME280;4769;42.660;23.262;2024-01-25T05:50:42;94407.41;;;7.40;71.80
9462;BME280;4769;42.660;23.262;2024-01-25T05:53:07;94407.34;;;7.47;71.59
9462;BME280;4769;42.660;23.262;2024-01-25T05:55:33;94414.63;;;7.45;72.09
9462;BME280;4769;42.660;23.262;2024-01-25T05:57:58;94424.97;;;7.40;72.18
9462;BME280;4769;42.660;23.262;2024-01-25T06:00:23;94409.06;;;7.35;72.52
9462;BME280;4769;42.660;23.262;2024-01-25T06:02:49;94397.19;;;7.32;73.51
9462;BME280;4769;42.660;23.262;2024-01-25T06:05:15;94403.25;;;7.26;73.33
9462;BME280;4769;42.660;23.262;2024-01-25T06:07:40;94410.91;;;7.28;73.72
9462;BME280;4769;42.660;23.262;2024-01-25T06:10:07;94418.59;;;7.29;73.94
9462;BME280;4769;42.660;23.262;2024-01-25T06:12:32;94403.34;;;7.20;74.39
9462;BME280;4769;42.660;23.262;2024-01-25T06:14:58;94408.56;;;7.20;74.06
9462;BME280;4769;42.660;23.262;2024-01-25T06:17:23;94411.09;;;7.33;73.91
9462;BME280;4769;42.660;23.262;2024-01-25T06:19:49;94402.88;;;7.23;73.85
9462;BME280;4769;42.660;23.262;2024-01-25T06:22:14;94420.22;;;7.24;74.34
9462;BME280;4769;42.660;23.262;2024-01-25T06:24:42;94420.31;;;7.17;74.38
9462;BME280;4769;42.660;23.262;2024-01-25T06:27:09;94428.69;;;7.26;74.08
9462;BME280;4769;42.660;23.262;2024-01-25T06:29:35;94429.28;;;7.28;74.46
9462;BME280;4769;42.660;23.262;2024-01-25T06:32:01;94420.03;;;7.25;74.04
9462;BME280;4769;42.660;23.262;2024-01-25T06:34:26;94421.94;;;7.12;75.23
9462;BME280;4769;42.660;23.262;2024-01-25T06:36:52;94412.19;;;7.19;75.18
9462;BME280;4769;42.660;23.262;2024-01-25T06:39:17;94410.81;;;7.16;74.88
9462;BME280;4769;42.660;23.262;2024-01-25T06:41:42;94400.09;;;7.18;75.05
9462;BME280;4769;42.660;23.262;2024-01-25T06:44:08;94419.47;;;7.17;74.86
9462;BME280;4769;42.660;23.262;2024-01-25T06:46:33;94415.63;;;7.19;74.31
9462;BME280;4769;42.660;23.262;2024-01-25T06:48:59;94423.09;;;7.22;74.35
9462;BME280;4769;42.660;23.262;2024-01-25T06:51:24;94434.19;;;7.18;74.36
9462;BME280;4769;42.660;23.262;2024-01-25T06:53:50;94421.00;;;7.31;74.86
9462;BME280;4769;42.660;23.262;2024-01-25T06:56:15;94434.84;;;7.13;74.05
9462;BME280;4769;42.660;23.262;2024-01-25T06:58:42;94425.34;;;7.12;73.97
9462;BME280;4769;42.660;23.262;2024-01-25T07:01:07;94427.50;;;7.22;74.28
9462;BME280;4769;42.660;23.262;2024-01-25T07:03:32;94423.25;;;7.27;74.01
9462;BME280;4769;42.660;23.262;2024-01-25T07:06:05;94431.66;;;7.36;74.20
9462;BME280;4769;42.660;23.262;2024-01-25T07:08:30;94430.25;;;7.33;73.20
9462;BME280;4769;42.660;23.262;2024-01-25T07:10:56;94422.59;;;7.32;73.38
9462;BME280;4769;42.660;23.262;2024-01-25T07:20:55;94415.38;;;7.27;72.89
9462;BME280;4769;42.660;23.262;2024-01-25T07:23:22;94424.84;;;7.28;73.05
9462;BME280;4769;42.660;23.262;2024-01-25T07:25:58;94426.69;;;7.21;73.02
9462;BME280;4769;42.660;23.262;2024-01-25T07:28:24;94423.25;;;7.27;72.39
9462;BME280;4769;42.660;23.262;2024-01-25T07:30:54;94427.13;;;7.18;72.75
9462;BME280;4769;42.660;23.262;2024-01-25T07:33:20;94424.34;;;7.13;73.47
9462;BME280;4769;42.660;23.262;2024-01-25T07:35:45;94423.53;;;7.13;73.53
9462;BME280;4769;42.660;23.262;2024-01-25T07:38:17;94436.44;;;7.14;73.23
9462;BME280;4769;42.660;23.262;2024-01-25T07:40:43;94422.97;;;7.11;73.19
9462;BME280;4769;42.660;23.262;2024-01-25T07:43:09;94420.09;;;7.12;72.78
9462;BME280;4769;42.660;23.262;2024-01-25T07:45:34;94430.81;;;7.11;73.38
9462;BME280;4769;42.660;23.262;2024-01-25T07:48:00;94427.00;;;7.07;72.70
9462;BME280;4769;42.660;23.262;2024-01-25T07:50:25;94419.22;;;7.25;72.70
9462;BME280;4769;42.660;23.262;2024-01-25T07:52:51;94422.69;;;7.19;71.89
9462;BME280;4769;42.660;23.262;2024-01-25T07:55:17;94432.78;;;7.15;72.49
9462;BME280;4769;42.660;23.262;2024-01-25T07:57:47;94430.50;;;7.25;72.16
9462;BME280;4769;42.660;23.262;2024-01-25T08:00:16;94436.31;;;7.34;72.16
9462;BME280;4769;42.660;23.262;2024-01-25T08:02:42;94438.78;;;7.53;70.95
9462;BME280;4769;42.660;23.262;2024-01-25T08:05:10;94446.75;;;7.40;70.55
9462;BME280;4769;42.660;23.262;2024-01-25T08:07:36;94441.13;;;7.37;70.81
9462;BME280;4769;42.660;23.262;2024-01-25T08:10:04;94445.53;;;7.43;70.03
9462;BME280;4769;42.660;23.262;2024-01-25T08:12:29;94433.53;;;7.53;69.08
9462;BME280;4769;42.660;23.262;2024-01-25T08:14:55;94433.81;;;7.45;69.82
9462;BME280;4769;42.660;23.262;2024-01-25T08:17:20;94437.13;;;7.59;69.78
9462;BME280;4769;42.660;23.262;2024-01-25T08:19:46;94444.59;;;7.62;69.16
9462;BME280;4769;42.660;23.262;2024-01-25T08:22:12;94445.41;;;7.56;68.77
9462;BME280;4769;42.660;23.262;2024-01-25T08:24:39;94441.19;;;7.55;69.47
9462;BME280;4769;42.660;23.262;2024-01-25T08:27:04;94446.84;;;7.52;68.53
9462;BME280;4769;42.660;23.262;2024-01-25T08:29:30;94457.78;;;7.49;68.71
9462;BME280;4769;42.660;23.262;2024-01-25T08:31:55;94429.41;;;7.39;69.19
9462;BME280;4769;42.660;23.262;2024-01-25T08:34:21;94431.13;;;7.52;68.37
9462;BME280;4769;42.660;23.262;2024-01-25T08:36:47;94429.72;;;7.49;69.16
9462;BME280;4769;42.660;23.262;2024-01-25T08:39:12;94436.97;;;7.54;69.16
9462;BME280;4769;42.660;23.262;2024-01-25T08:41:38;94452.91;;;7.52;68.47
9462;BME280;4769;42.660;23.262;2024-01-25T08:44:03;94456.50;;;7.33;69.56
9462;BME280;4769;42.660;23.262;2024-01-25T08:46:30;94463.66;;;7.44;68.80
9462;BME280;4769;42.660;23.262;2024-01-25T08:48:58;94476.25;;;7.36;69.08
9462;BME280;4769;42.660;23.262;2024-01-25T08:51:26;94461.75;;;7.33;69.52
9462;BME280;4769;42.660;23.262;2024-01-25T08:53:51;94460.25;;;7.44;69.23
9462;BME280;4769;42.660;23.262;2024-01-25T08:56:17;94481.03;;;7.45;69.88
9462;BME280;4769;42.660;23.262;2024-01-25T08:58:42;94467.53;;;7.42;69.41
9462;BME280;4769;42.660;23.262;2024-01-25T09:01:08;94479.00;;;7.47;69.05
9462;BME280;4769;42.660;23.262;2024-01-25T09:03:33;94462.88;;;7.44;69.27
9462;BME280;4769;42.660;23.262;2024-01-25T09:05:59;94458.34;;;7.57;69.63
9462;BME280;4769;42.660;23.262;2024-01-25T09:08:30;94472.22;;;7.64;68.96
9462;BME280;4769;42.660;23.262;2024-01-25T09:10:55;94454.81;;;7.45;69.32
9462;BME280;4769;42.660;23.262;2024-01-25T09:13:21;94449.44;;;7.58;69.63
9462;BME280;4769;42.660;23.262;2024-01-25T09:15:46;94441.34;;;7.60;70.23
9462;BME280;4769;42.660;23.262;2024-01-25T09:18:12;94441.09;;;7.68;68.89
9462;BME280;4769;42.660;23.262;2024-01-25T09:20:37;94433.97;;;7.75;68.48
9462;BME280;4769;42.660;23.262;2024-01-25T09:23:03;94431.81;;;7.90;68.53
9462;BME280;4769;42.660;23.262;2024-01-25T09:25:29;94434.06;;;7.86;68.12
9462;BME280;4769;42.660;23.262;2024-01-25T09:27:54;94424.69;;;8.15;67.91
9462;BME280;4769;42.660;23.262;2024-01-25T09:30:22;94414.72;;;8.23;67.26
9462;BME280;4769;42.660;23.262;2024-01-25T09:32:48;94412.16;;;8.17;67.65
9462;BME280;4769;42.660;23.262;2024-01-25T09:35:13;94422.06;;;8.15;67.47
9462;BME280;4769;42.660;23.262;2024-01-25T09:37:38;94412.56;;;8.20;67.41
9462;BME280;4769;42.660;23.262;2024-01-25T09:40:04;94415.75;;;8.22;67.72
9462;BME280;4769;42.660;23.262;2024-01-25T09:42:30;94418.34;;;8.04;68.21
9462;BME280;4769;42.660;23.262;2024-01-25T09:44:56;94406.16;;;8.10;68.01
9462;BME280;4769;42.660;23.262;2024-01-25T09:47:26;94396.63;;;8.15;68.11
9462;BME280;4769;42.660;23.262;2024-01-25T09:49:58;94405.00;;;8.06;67.93
9462;BME280;4769;42.660;23.262;2024-01-25T09:52:23;94390.31;;;8.23;67.20
9462;BME280;4769;42.660;23.262;2024-01-25T09:54:53;94386.13;;;8.15;67.60
9462;BME280;4769;42.660;23.262;2024-01-25T09:57:23;94374.03;;;8.32;67.59
9462;BME280;4769;42.660;23.262;2024-01-25T09:59:49;94371.59;;;8.13;67.47
9462;BME280;4769;42.660;23.262;2024-01-25T10:02:20;94374.66;;;8.10;68.04
9462;BME280;4769;42.660;23.262;2024-01-25T10:04:52;94374.03;;;8.32;67.96
9462;BME280;4769;42.660;23.262;2024-01-25T10:07:37;94376.28;;;8.29;67.60
9462;BME280;4769;42.660;23.262;2024-01-25T10:10:04;94372.63;;;8.48;66.93
9462;BME280;4769;42.660;23.262;2024-01-25T10:12:31;94362.66;;;8.38;67.70
9462;BME280;4769;42.660;23.262;2024-01-25T10:14:57;94357.06;;;8.46;67.00
9462;BME280;4769;42.660;23.262;2024-01-25T10:17:22;94353.75;;;8.39;67.30
9462;BME280;4769;42.660;23.262;2024-01-25T10:19:47;94347.38;;;8.47;67.25
9462;BME280;4769;42.660;23.262;2024-01-25T10:22:14;94357.06;;;8.46;66.99
9462;BME280;4769;42.660;23.262;2024-01-25T10:24:39;94364.31;;;8.51;67.25
9462;BME280;4769;42.660;23.262;2024-01-25T10:27:07;94360.72;;;8.45;67.23
9462;BME280;4769;42.660;23.262;2024-01-25T10:29:36;94353.47;;;8.59;66.11
9462;BME280;4769;42.660;23.262;2024-01-25T10:32:06;94354.00;;;8.49;66.03
9462;BME280;4769;42.660;23.262;2024-01-25T10:34:35;94350.97;;;8.52;66.07
9462;BME280;4769;42.660;23.262;2024-01-25T10:37:03;94357.69;;;8.78;65.86
9462;BME280;4769;42.660;23.262;2024-01-25T10:39:31;94351.28;;;8.74;65.32
9462;BME280;4769;42.660;23.262;2024-01-25T10:42:02;94361.13;;;8.60;65.93
9462;BME280;4769;42.660;23.262;2024-01-25T10:47:03;94349.66;;;8.73;65.29
9462;BME280;4769;42.660;23.262;2024-01-25T10:49:29;94340.66;;;8.51;64.63
9462;BME280;4769;42.660;23.262;2024-01-25T10:57:08;94324.16;;;8.73;63.24
9462;BME280;4769;42.660;23.262;2024-01-25T10:59:34;94327.66;;;8.56;63.34
9462;BME280;4769;42.660;23.262;2024-01-25T11:02:00;94322.41;;;8.56;63.28
9462;BME280;4769;42.660;23.262;2024-01-25T11:04:27;94311.06;;;8.26;64.25
9462;BME280;4769;42.660;23.262;2024-01-25T11:07:07;94314.13;;;8.23;64.53
9462;BME280;4769;42.660;23.262;2024-01-25T11:09:35;94304.41;;;8.23;64.94
9462;BME280;4769;42.660;23.262;2024-01-25T11:12:17;94305.84;;;8.19;65.04
9462;BME280;4769;42.660;23.262;2024-01-25T11:15:19;94305.00;;;8.07;65.87
9462;BME280;4769;42.660;23.262;2024-01-25T11:17:54;94296.38;;;8.18;66.22
9462;BME280;4769;42.660;23.262;2024-01-25T11:20:28;94265.28;;;8.33;64.97
9462;BME280;4769;42.660;23.262;2024-01-25T11:23:04;94269.31;;;8.36;64.16
9462;BME280;4769;42.660;23.262;2024-01-25T11:25:37;94278.38;;;8.04;65.43
9462;BME280;4769;42.660;23.262;2024-01-25T11:28:07;94280.22;;;7.85;66.58
9462;BME280;4769;42.660;23.262;2024-01-25T11:30:34;94278.06;;;7.94;67.22
9462;BME280;4769;42.660;23.262;2024-01-25T11:33:11;94270.94;;;8.01;66.89
9462;BME280;4769;42.660;23.262;2024-01-25T11:38:12;94262.13;;;7.77;66.97
9462;BME280;4769;42.660;23.262;2024-01-25T11:40:38;94291.38;;;7.81;67.22
9462;BME280;4769;42.660;23.262;2024-01-25T11:43:05;94266.38;;;7.78;67.20
9462;BME280;4769;42.660;23.262;2024-01-25T11:45:35;94286.56;;;7.78;67.00
9462;BME280;4769;42.660;23.262;2024-01-25T11:48:07;94291.22;;;7.94;66.36
9462;BME280;4769;42.660;23.262;2024-01-25T11:50:36;94282.75;;;7.92;67.44
9462;BME280;4769;42.660;23.262;2024-01-25T11:53:05;94280.66;;;7.82;67.34
9462;BME280;4769;42.660;23.262;2024-01-25T11:55:30;94283.66;;;7.86;67.63
9462;BME280;4769;42.660;23.262;2024-01-25T11:57:56;94270.88;;;7.89;66.91
9462;BME280;4769;42.660;23.262;2024-01-25T12:00:24;94287.66;;;7.88;66.39
9462;BME280;4769;42.660;23.262;2024-01-25T12:02:50;94280.06;;;7.98;66.61
9462;BME280;4769;42.660;23.262;2024-01-25T12:05:15;94296.38;;;8.00;65.21
9462;BME280;4769;42.660;23.262;2024-01-25T12:07:41;94298.44;;;7.98;64.94
9462;BME280;4769;42.660;23.262;2024-01-25T12:10:08;94310.09;;;8.02;64.75
9462;BME280;4769;42.660;23.262;2024-01-25T12:12:39;94297.03;;;8.14;64.85
9462;BME280;4769;42.660;23.262;2024-01-25T12:15:08;94292.09;;;8.06;64.41
9462;BME280;4769;42.660;23.262;2024-01-25T12:17:34;94277.97;;;8.18;64.53
9462;BME280;4769;42.660;23.262;2024-01-25T12:20:04;94274.97;;;8.21;64.43
9462;BME280;4769;42.660;23.262;2024-01-25T12:22:36;94257.66;;;8.14;63.56
9462;BME280;4769;42.660;23.262;2024-01-25T12:25:06;94273.28;;;8.27;64.21
9462;BME280;4769;42.660;23.262;2024-01-25T12:27:32;94260.94;;;8.57;63.92
9462;BME280;4769;42.660;23.262;2024-01-25T12:32:34;94256.69;;;8.97;60.61
9462;BME280;4769;42.660;23.262;2024-01-25T12:35:00;94256.81;;;9.02;60.73
9462;BME280;4769;42.660;23.262;2024-01-25T12:37:26;94251.31;;;9.15;59.30
9462;BME280;4769;42.660;23.262;2024-01-25T12:39:53;94240.28;;;9.87;58.04
9462;BME280;4769;42.660;23.262;2024-01-25T12:42:20;94232.31;;;10.49;56.16
9462;BME280;4769;42.660;23.262;2024-01-25T12:44:46;94217.91;;;10.40;55.02
9462;BME280;4769;42.660;23.262;2024-01-25T12:47:13;94231.97;;;10.18;55.90
9462;BME280;4769;42.660;23.262;2024-01-25T12:49:42;94223.38;;;9.60;57.43
9462;BME280;4769;42.660;23.262;2024-01-25T12:52:09;94225.88;;;9.66;57.31
9462;BME280;4769;42.660;23.262;2024-01-25T12:54:36;94215.69;;;9.58;57.36
9462;BME280;4769;42.660;23.262;2024-01-25T12:57:01;94208.88;;;9.46;56.22
9462;BME280;4769;42.660;23.262;2024-01-25T12:59:27;94192.16;;;9.29;57.30
9462;BME280;4769;42.660;23.262;2024-01-25T13:01:52;94191.84;;;9.02;58.09
9462;BME280;4769;42.660;23.262;2024-01-25T13:04:18;94171.84;;;8.90;58.94
9462;BME280;4769;42.660;23.262;2024-01-25T13:06:43;94215.06;;;9.40;57.44
9462;BME280;4769;42.660;23.262;2024-01-25T13:09:09;94195.59;;;9.41;57.33
9462;BME280;4769;42.660;23.262;2024-01-25T13:11:34;94196.28;;;9.99;56.04
9462;BME280;4769;42.660;23.262;2024-01-25T13:14:00;94197.63;;;10.13;54.76
9462;BME280;4769;42.660;23.262;2024-01-25T13:16:25;94209.63;;;9.81;55.05
9462;BME280;4769;42.660;23.262;2024-01-25T13:18:51;94198.06;;;9.70;56.04
9462;BME280;4769;42.660;23.262;2024-01-25T13:21:16;94195.88;;;9.67;55.25
9462;BME280;4769;42.660;23.262;2024-01-25T13:23:42;94205.31;;;9.29;56.69
9462;BME280;4769;42.660;23.262;2024-01-25T13:26:09;94218.00;;;8.74;58.79
9462;BME280;4769;42.660;23.262;2024-01-25T13:28:35;94227.31;;;8.59;59.58
9462;BME280;4769;42.660;23.262;2024-01-25T13:31:01;94225.56;;;8.41;60.82
9462;BME280;4769;42.660;23.262;2024-01-25T13:33:27;94218.38;;;8.37;61.70
9462;BME280;4769;42.660;23.262;2024-01-25T13:35:52;94223.03;;;8.35;61.64
9462;BME280;4769;42.660;23.262;2024-01-25T13:38:18;94204.31;;;8.31;61.99